QFA511 YBBN-YSSY
Flight info
| Callsign | QFA511 |
|---|---|
| Flight time | 1h 14m |
| Altitude | 32000 |
| Route | BN H91 IGDAM/N0459F330 H652 TESAT |
| Aircraft | B38M/M-SDE1FGHILORVWXY/HB1 |
Departure
| Time | 2026-05-07 17:35 |
|---|---|
| Airport | Brisbane International Airport (YBBN) |
Arrival
| Time | 2026-05-07 18:49 |
|---|---|
| Airport | Sydney Kingsford Smith International Airport (YSSY) |
| Time | Latitude | Longitude | Altitude | Speed | Heading |
|---|---|---|---|---|---|
| 2026-05-07 16:50 | -27.38654 | 153.12249 | 21 ft | 0 kts | 306° |
| 2026-05-07 17:21 | -27.38656 | 153.12246 | 20 ft | 4 kts | 277° |
| 2026-05-07 17:22 | -27.38668 | 153.12262 | 25 ft | 4 kts | 317° |
| 2026-05-07 17:22 | -27.38687 | 153.12283 | 20 ft | 4 kts | 316° |
| 2026-05-07 17:22 | -27.38691 | 153.12287 | 24 ft | 2 kts | 317° |
| 2026-05-07 17:26 | -27.38688 | 153.12285 | 20 ft | 1 kts | 327° |
| 2026-05-07 17:26 | -27.38675 | 153.12282 | 22 ft | 2 kts | 358° |
| 2026-05-07 17:27 | -27.38656 | 153.12291 | 20 ft | 4 kts | 28° |
| 2026-05-07 17:27 | -27.38629 | 153.12311 | 21 ft | 6 kts | 32° |
| 2026-05-07 17:27 | -27.38589 | 153.12336 | 20 ft | 7 kts | 27° |
| 2026-05-07 17:27 | -27.38555 | 153.12381 | 20 ft | 8 kts | 87° |
| 2026-05-07 17:28 | -27.38538 | 153.12445 | 20 ft | 10 kts | 46° |
| 2026-05-07 17:28 | -27.38477 | 153.12485 | 20 ft | 4 kts | 26° |
| 2026-05-07 17:28 | -27.38471 | 153.12489 | 22 ft | 3 kts | 26° |
| 2026-05-07 17:28 | -27.38440 | 153.12505 | 21 ft | 6 kts | 26° |
| 2026-05-07 17:29 | -27.38395 | 153.12530 | 20 ft | 8 kts | 26° |
| 2026-05-07 17:29 | -27.38345 | 153.12561 | 20 ft | 8 kts | 28° |
| 2026-05-07 17:29 | -27.38289 | 153.12595 | 20 ft | 10 kts | 28° |
| 2026-05-07 17:29 | -27.38222 | 153.12632 | 20 ft | 11 kts | 26° |
| 2026-05-07 17:30 | -27.38148 | 153.12677 | 20 ft | 13 kts | 28° |
| 2026-05-07 17:30 | -27.38062 | 153.12724 | 20 ft | 15 kts | 25° |
| 2026-05-07 17:30 | -27.37993 | 153.12792 | 20 ft | 11 kts | 84° |
| 2026-05-07 17:30 | -27.38002 | 153.12878 | 20 ft | 12 kts | 68° |
| 2026-05-07 17:31 | -27.37934 | 153.12934 | 21 ft | 13 kts | 26° |
| 2026-05-07 17:31 | -27.37848 | 153.12984 | 21 ft | 15 kts | 28° |
| 2026-05-07 17:31 | -27.37752 | 153.13040 | 20 ft | 16 kts | 26° |
| 2026-05-07 17:31 | -27.37644 | 153.13099 | 21 ft | 18 kts | 26° |
| 2026-05-07 17:32 | -27.37529 | 153.13166 | 21 ft | 19 kts | 27° |
| 2026-05-07 17:32 | -27.37416 | 153.13232 | 21 ft | 16 kts | 26° |
| 2026-05-07 17:32 | -27.37327 | 153.13286 | 21 ft | 12 kts | 45° |
| 2026-05-07 17:32 | -27.37324 | 153.13342 | 21 ft | 12 kts | 114° |
| 2026-05-07 17:33 | -27.37399 | 153.13422 | 24 ft | 11 kts | 155° |
| 2026-05-07 17:33 | -27.37471 | 153.13428 | 25 ft | 11 kts | 198° |
| 2026-05-07 17:33 | -27.37507 | 153.13408 | 27 ft | 0 kts | 207° |
| 2026-05-07 17:34 | -27.37529 | 153.13395 | 24 ft | 19 kts | 207° |
| 2026-05-07 17:34 | -27.37898 | 153.13184 | 24 ft | 98 kts | 207° |
| 2026-05-07 17:34 | -27.38694 | 153.12706 | 64 ft | 155 kts | 211° |
| 2026-05-07 17:34 | -27.39696 | 153.12099 | 532 ft | 178 kts | 206° |
| 2026-05-07 17:35 | -27.40931 | 153.11554 | 1172 ft | 196 kts | 198° |
| 2026-05-07 17:35 | -27.42223 | 153.11196 | 2179 ft | 197 kts | 193° |
| 2026-05-07 17:35 | -27.43646 | 153.10822 | 2710 ft | 226 kts | 192° |
| 2026-05-07 17:35 | -27.45176 | 153.10411 | 3764 ft | 227 kts | 192° |
| 2026-05-07 17:36 | -27.46744 | 153.09982 | 4540 ft | 244 kts | 193° |
| 2026-05-07 17:36 | -27.48441 | 153.09512 | 5357 ft | 256 kts | 194° |
| 2026-05-07 17:36 | -27.50185 | 153.09028 | 6330 ft | 262 kts | 196° |
| 2026-05-07 17:36 | -27.51992 | 153.08523 | 7173 ft | 270 kts | 196° |
| 2026-05-07 17:37 | -27.53814 | 153.08013 | 8180 ft | 271 kts | 196° |
| 2026-05-07 17:37 | -27.55658 | 153.07497 | 9125 ft | 275 kts | 196° |
| 2026-05-07 17:37 | -27.57523 | 153.06975 | 10085 ft | 277 kts | 196° |
| 2026-05-07 17:37 | -27.59437 | 153.06437 | 10687 ft | 292 kts | 196° |
| 2026-05-07 17:38 | -27.61481 | 153.05864 | 11089 ft | 313 kts | 196° |
| 2026-05-07 17:38 | -27.63646 | 153.05256 | 11445 ft | 332 kts | 196° |
| 2026-05-07 17:38 | -27.65938 | 153.04613 | 11925 ft | 346 kts | 196° |
| 2026-05-07 17:38 | -27.68291 | 153.03952 | 12664 ft | 349 kts | 196° |
| 2026-05-07 17:39 | -27.70662 | 153.03286 | 13409 ft | 354 kts | 196° |
| 2026-05-07 17:39 | -27.73053 | 153.02614 | 14112 ft | 357 kts | 196° |
| 2026-05-07 17:39 | -27.75478 | 153.01932 | 14759 ft | 361 kts | 197° |
| 2026-05-07 17:39 | -27.77927 | 153.01243 | 15383 ft | 365 kts | 197° |
| 2026-05-07 17:40 | -27.80407 | 153.00545 | 16024 ft | 368 kts | 197° |
| 2026-05-07 17:40 | -27.82902 | 152.99842 | 16647 ft | 372 kts | 197° |
| 2026-05-07 17:40 | -27.85429 | 152.99130 | 17270 ft | 376 kts | 197° |
| 2026-05-07 17:40 | -27.87973 | 152.98412 | 17851 ft | 379 kts | 197° |
| 2026-05-07 17:41 | -27.90548 | 152.97687 | 18458 ft | 383 kts | 197° |
| 2026-05-07 17:41 | -27.93146 | 152.96953 | 18981 ft | 387 kts | 198° |
| 2026-05-07 17:41 | -27.95764 | 152.96213 | 19522 ft | 389 kts | 198° |
| 2026-05-07 17:41 | -27.98401 | 152.95468 | 20056 ft | 392 kts | 199° |
| 2026-05-07 17:42 | -28.01064 | 152.94715 | 20572 ft | 395 kts | 199° |
| 2026-05-07 17:42 | -28.03744 | 152.93958 | 21091 ft | 398 kts | 199° |
| 2026-05-07 17:42 | -28.06439 | 152.93196 | 21597 ft | 401 kts | 200° |
| 2026-05-07 17:42 | -28.09140 | 152.92369 | 22086 ft | 400 kts | 206° |
| 2026-05-07 17:43 | -28.11705 | 152.91161 | 22578 ft | 401 kts | 208° |
| 2026-05-07 17:43 | -28.14300 | 152.89970 | 23112 ft | 404 kts | 208° |
| 2026-05-07 17:43 | -28.16918 | 152.88790 | 23606 ft | 407 kts | 208° |
| 2026-05-07 17:43 | -28.19562 | 152.87611 | 24025 ft | 410 kts | 208° |
| 2026-05-07 17:44 | -28.22191 | 152.86445 | 24437 ft | 412 kts | 208° |
| 2026-05-07 17:44 | -28.24902 | 152.85244 | 24838 ft | 415 kts | 209° |
| 2026-05-07 17:44 | -28.27563 | 152.84066 | 25245 ft | 417 kts | 209° |
| 2026-05-07 17:44 | -28.30271 | 152.82867 | 25633 ft | 419 kts | 210° |
| 2026-05-07 17:45 | -28.32995 | 152.81660 | 26039 ft | 422 kts | 210° |
| 2026-05-07 17:45 | -28.35732 | 152.80446 | 26422 ft | 425 kts | 210° |
| 2026-05-07 17:45 | -28.38492 | 152.79222 | 26786 ft | 427 kts | 210° |
| 2026-05-07 17:45 | -28.41266 | 152.77989 | 27152 ft | 430 kts | 210° |
| 2026-05-07 17:46 | -28.43158 | 152.77149 | 27407 ft | 431 kts | 210° |
| 2026-05-07 17:46 | -28.45918 | 152.75923 | 27802 ft | 433 kts | 211° |
| 2026-05-07 17:46 | -28.48727 | 152.74675 | 28132 ft | 434 kts | 211° |
| 2026-05-07 17:46 | -28.51549 | 152.73419 | 28426 ft | 437 kts | 211° |
| 2026-05-07 17:47 | -28.54387 | 152.72156 | 28740 ft | 439 kts | 211° |
| 2026-05-07 17:47 | -28.57243 | 152.70884 | 29091 ft | 441 kts | 211° |
| 2026-05-07 17:47 | -28.60109 | 152.69607 | 29431 ft | 444 kts | 211° |
| 2026-05-07 17:47 | -28.62994 | 152.68321 | 29645 ft | 448 kts | 211° |
| 2026-05-07 17:48 | -28.65943 | 152.67005 | 29963 ft | 450 kts | 211° |
| 2026-05-07 17:48 | -28.68822 | 152.65720 | 30300 ft | 451 kts | 211° |
| 2026-05-07 17:48 | -28.71741 | 152.64416 | 30643 ft | 450 kts | 211° |
| 2026-05-07 17:48 | -28.74645 | 152.63118 | 31016 ft | 448 kts | 211° |
| 2026-05-07 17:49 | -28.77547 | 152.61820 | 31404 ft | 447 kts | 212° |
| 2026-05-07 17:49 | -28.80438 | 152.60527 | 31772 ft | 445 kts | 212° |
| 2026-05-07 17:49 | -28.83308 | 152.59242 | 32131 ft | 445 kts | 212° |
| 2026-05-07 17:49 | -28.86193 | 152.57945 | 32191 ft | 444 kts | 212° |
| 2026-05-07 17:50 | -28.91915 | 152.55366 | 32180 ft | 442 kts | 212° |
| 2026-05-07 17:50 | -28.97635 | 152.52786 | 32179 ft | 442 kts | 212° |
| 2026-05-07 17:51 | -29.03355 | 152.50203 | 32191 ft | 443 kts | 212° |
| 2026-05-07 17:51 | -29.09078 | 152.47616 | 32215 ft | 442 kts | 212° |
| 2026-05-07 17:52 | -29.14791 | 152.45030 | 32193 ft | 441 kts | 212° |
| 2026-05-07 17:52 | -29.20500 | 152.42442 | 32184 ft | 441 kts | 212° |
| 2026-05-07 17:53 | -29.26208 | 152.39851 | 32200 ft | 441 kts | 212° |
| 2026-05-07 17:53 | -29.31910 | 152.37261 | 32237 ft | 441 kts | 211° |
| 2026-05-07 17:54 | -29.37568 | 152.34687 | 32208 ft | 440 kts | 211° |
| 2026-05-07 17:54 | -29.43257 | 152.32097 | 32200 ft | 440 kts | 212° |
| 2026-05-07 17:55 | -29.48955 | 152.29501 | 32215 ft | 441 kts | 211° |
| 2026-05-07 17:55 | -29.54648 | 152.26906 | 32255 ft | 440 kts | 211° |
| 2026-05-07 17:56 | -29.60354 | 152.24300 | 32213 ft | 441 kts | 211° |
| 2026-05-07 17:56 | -29.66055 | 152.21694 | 32229 ft | 441 kts | 211° |
| 2026-05-07 17:57 | -29.70796 | 152.19525 | 32242 ft | 441 kts | 211° |
| 2026-05-07 17:57 | -29.77455 | 152.16473 | 32269 ft | 441 kts | 211° |
| 2026-05-07 17:58 | -29.83148 | 152.13862 | 32245 ft | 440 kts | 211° |
| 2026-05-07 17:58 | -29.88842 | 152.11246 | 32240 ft | 440 kts | 211° |
| 2026-05-07 17:59 | -29.94528 | 152.08631 | 32239 ft | 440 kts | 211° |
| 2026-05-07 17:59 | -30.00215 | 152.06012 | 32267 ft | 440 kts | 211° |
| 2026-05-07 18:00 | -30.05890 | 152.03395 | 32250 ft | 438 kts | 211° |
| 2026-05-07 18:00 | -30.11557 | 152.00779 | 32255 ft | 439 kts | 211° |
| 2026-05-07 18:01 | -30.17185 | 151.98178 | 32248 ft | 439 kts | 211° |
| 2026-05-07 18:01 | -30.22846 | 151.95558 | 32254 ft | 439 kts | 211° |
| 2026-05-07 18:02 | -30.31346 | 151.91619 | 32260 ft | 440 kts | 211° |
| 2026-05-07 18:03 | -30.37033 | 151.88979 | 32263 ft | 440 kts | 211° |
| 2026-05-07 18:03 | -30.42714 | 151.86338 | 32268 ft | 440 kts | 211° |
| 2026-05-07 18:04 | -30.48400 | 151.83692 | 32276 ft | 440 kts | 210° |
| 2026-05-07 18:04 | -30.54084 | 151.81043 | 32268 ft | 440 kts | 210° |
| 2026-05-07 18:05 | -30.59764 | 151.78393 | 32279 ft | 440 kts | 210° |
| 2026-05-07 18:05 | -30.65445 | 151.75739 | 32268 ft | 440 kts | 210° |
| 2026-05-07 18:06 | -30.71120 | 151.73084 | 32287 ft | 439 kts | 210° |
| 2026-05-07 18:06 | -30.76788 | 151.70430 | 32277 ft | 439 kts | 210° |
| 2026-05-07 18:07 | -30.82461 | 151.67769 | 32282 ft | 439 kts | 210° |
| 2026-05-07 18:07 | -30.88129 | 151.65108 | 32283 ft | 439 kts | 210° |
| 2026-05-07 18:08 | -30.93793 | 151.62445 | 32268 ft | 438 kts | 210° |
| 2026-05-07 18:08 | -30.99408 | 151.59802 | 32269 ft | 438 kts | 210° |
| 2026-05-07 18:09 | -31.05059 | 151.57138 | 32275 ft | 438 kts | 210° |
| 2026-05-07 18:09 | -31.10707 | 151.54472 | 32276 ft | 438 kts | 210° |
| 2026-05-07 18:10 | -31.16364 | 151.51799 | 32269 ft | 440 kts | 209° |
| 2026-05-07 18:10 | -31.22045 | 151.49111 | 32269 ft | 440 kts | 209° |
| 2026-05-07 18:11 | -31.27724 | 151.46420 | 32264 ft | 440 kts | 209° |
| 2026-05-07 18:11 | -31.33404 | 151.43726 | 32270 ft | 440 kts | 209° |
| 2026-05-07 18:12 | -31.39092 | 151.41058 | 32265 ft | 442 kts | 208° |
| 2026-05-07 18:12 | -31.44827 | 151.38482 | 32258 ft | 443 kts | 208° |
| 2026-05-07 18:13 | -31.50581 | 151.35910 | 32247 ft | 442 kts | 207° |
| 2026-05-07 18:13 | -31.56334 | 151.33338 | 32269 ft | 443 kts | 207° |
| 2026-05-07 18:14 | -31.62079 | 151.30765 | 32259 ft | 443 kts | 207° |
| 2026-05-07 18:14 | -31.67832 | 151.28185 | 32259 ft | 443 kts | 207° |
| 2026-05-07 18:15 | -31.73589 | 151.25600 | 32254 ft | 443 kts | 207° |
| 2026-05-07 18:15 | -31.79326 | 151.22984 | 32254 ft | 440 kts | 210° |
| 2026-05-07 18:16 | -31.85256 | 151.21049 | 32271 ft | 453 kts | 192° |
| 2026-05-07 18:16 | -31.88338 | 151.20425 | 32237 ft | 444 kts | 203° |
| 2026-05-07 18:16 | -31.91215 | 151.19181 | 32234 ft | 437 kts | 213° |
| 2026-05-07 18:16 | -31.93678 | 151.17220 | 32250 ft | 424 kts | 224° |
| 2026-05-07 18:17 | -31.96140 | 151.15244 | 32170 ft | 436 kts | 210° |
| 2026-05-07 18:17 | -32.01880 | 151.12899 | 32245 ft | 439 kts | 208° |
| 2026-05-07 18:18 | -32.07583 | 151.10321 | 32229 ft | 439 kts | 207° |
| 2026-05-07 18:18 | -32.13287 | 151.07757 | 32239 ft | 439 kts | 207° |
| 2026-05-07 18:19 | -32.19001 | 151.05187 | 32232 ft | 439 kts | 207° |
| 2026-05-07 18:19 | -32.24706 | 151.02617 | 32230 ft | 438 kts | 207° |
| 2026-05-07 18:20 | -32.30379 | 151.00057 | 32214 ft | 437 kts | 207° |
| 2026-05-07 18:20 | -32.36068 | 150.97488 | 32217 ft | 437 kts | 207° |
| 2026-05-07 18:21 | -32.41746 | 150.94920 | 32212 ft | 437 kts | 207° |
| 2026-05-07 18:21 | -32.47423 | 150.92374 | 31596 ft | 437 kts | 204° |
| 2026-05-07 18:21 | -32.50464 | 150.91760 | 30786 ft | 453 kts | 187° |
| 2026-05-07 18:22 | -32.53626 | 150.92080 | 30116 ft | 457 kts | 180° |
| 2026-05-07 18:22 | -32.55710 | 150.92386 | 29597 ft | 456 kts | 179° |
| 2026-05-07 18:22 | -32.59909 | 150.93059 | 28649 ft | 452 kts | 179° |
| 2026-05-07 18:22 | -32.63003 | 150.93583 | 28064 ft | 448 kts | 179° |
| 2026-05-07 18:23 | -32.66076 | 150.94120 | 27504 ft | 444 kts | 179° |
| 2026-05-07 18:23 | -32.69119 | 150.94657 | 26880 ft | 441 kts | 179° |
| 2026-05-07 18:23 | -32.72147 | 150.95194 | 26282 ft | 438 kts | 179° |
| 2026-05-07 18:23 | -32.75149 | 150.95726 | 25694 ft | 435 kts | 180° |
| 2026-05-07 18:24 | -32.78134 | 150.96257 | 25118 ft | 432 kts | 180° |
| 2026-05-07 18:24 | -32.81103 | 150.96784 | 24456 ft | 432 kts | 180° |
| 2026-05-07 18:24 | -32.84065 | 150.97312 | 23939 ft | 429 kts | 180° |
| 2026-05-07 18:24 | -32.87012 | 150.97836 | 23239 ft | 427 kts | 180° |
| 2026-05-07 18:25 | -32.89937 | 150.98358 | 22644 ft | 423 kts | 179° |
| 2026-05-07 18:25 | -32.92827 | 150.98874 | 22103 ft | 417 kts | 179° |
| 2026-05-07 18:25 | -32.95678 | 150.99382 | 21508 ft | 410 kts | 179° |
| 2026-05-07 18:25 | -32.98470 | 150.99880 | 20956 ft | 402 kts | 178° |
| 2026-05-07 18:26 | -33.01216 | 151.00370 | 20410 ft | 396 kts | 178° |
| 2026-05-07 18:26 | -33.03907 | 151.00851 | 19879 ft | 389 kts | 178° |
| 2026-05-07 18:26 | -33.06568 | 151.01327 | 19345 ft | 384 kts | 177° |
| 2026-05-07 18:26 | -33.09191 | 151.01796 | 18829 ft | 378 kts | 177° |
| 2026-05-07 18:27 | -33.11778 | 151.02259 | 18295 ft | 374 kts | 177° |
| 2026-05-07 18:27 | -33.14338 | 151.02717 | 17742 ft | 368 kts | 177° |
| 2026-05-07 18:27 | -33.16853 | 151.03167 | 17240 ft | 363 kts | 177° |
| 2026-05-07 18:27 | -33.18499 | 151.03463 | 16904 ft | 359 kts | 177° |
| 2026-05-07 18:28 | -33.21771 | 151.04049 | 16266 ft | 352 kts | 177° |
| 2026-05-07 18:28 | -33.24179 | 151.04498 | 15721 ft | 350 kts | 176° |
| 2026-05-07 18:28 | -33.26584 | 151.04969 | 15246 ft | 352 kts | 176° |
| 2026-05-07 18:28 | -33.29008 | 151.05442 | 14766 ft | 355 kts | 176° |
| 2026-05-07 18:29 | -33.31441 | 151.05916 | 14342 ft | 354 kts | 176° |
| 2026-05-07 18:29 | -33.33868 | 151.06388 | 13873 ft | 352 kts | 176° |
| 2026-05-07 18:29 | -33.36268 | 151.06857 | 13356 ft | 349 kts | 176° |
| 2026-05-07 18:29 | -33.38650 | 151.07321 | 12893 ft | 346 kts | 176° |
| 2026-05-07 18:30 | -33.41022 | 151.07783 | 12454 ft | 343 kts | 176° |
| 2026-05-07 18:30 | -33.43374 | 151.08242 | 12020 ft | 340 kts | 176° |
| 2026-05-07 18:30 | -33.45662 | 151.08770 | 11607 ft | 341 kts | 168° |
| 2026-05-07 18:30 | -33.47787 | 151.10042 | 11446 ft | 341 kts | 154° |
| 2026-05-07 18:31 | -33.49721 | 151.11608 | 11290 ft | 330 kts | 153° |
| 2026-05-07 18:31 | -33.51587 | 151.13158 | 11034 ft | 323 kts | 152° |
| 2026-05-07 18:31 | -33.53408 | 151.14674 | 10722 ft | 315 kts | 153° |
| 2026-05-07 18:31 | -33.55187 | 151.16157 | 10439 ft | 308 kts | 153° |
| 2026-05-07 18:32 | -33.56922 | 151.17606 | 10104 ft | 300 kts | 153° |
| 2026-05-07 18:32 | -33.58609 | 151.19012 | 9824 ft | 291 kts | 153° |
| 2026-05-07 18:32 | -33.60276 | 151.20359 | 9478 ft | 287 kts | 153° |
| 2026-05-07 18:32 | -33.61922 | 151.21678 | 9160 ft | 282 kts | 153° |
| 2026-05-07 18:33 | -33.63538 | 151.22981 | 8844 ft | 279 kts | 153° |
| 2026-05-07 18:33 | -33.65130 | 151.24294 | 8489 ft | 275 kts | 153° |
| 2026-05-07 18:33 | -33.66695 | 151.25578 | 8171 ft | 271 kts | 153° |
| 2026-05-07 18:33 | -33.68239 | 151.26848 | 7855 ft | 266 kts | 152° |
| 2026-05-07 18:34 | -33.69741 | 151.28104 | 7547 ft | 260 kts | 152° |
| 2026-05-07 18:34 | -33.70741 | 151.28938 | 7354 ft | 257 kts | 152° |
| 2026-05-07 18:34 | -33.72167 | 151.30134 | 7136 ft | 249 kts | 152° |
| 2026-05-07 18:34 | -33.73568 | 151.31311 | 6926 ft | 246 kts | 152° |
| 2026-05-07 18:35 | -33.74971 | 151.32481 | 6731 ft | 245 kts | 152° |
| 2026-05-07 18:35 | -33.76371 | 151.33641 | 6515 ft | 244 kts | 152° |
| 2026-05-07 18:35 | -33.77771 | 151.34787 | 6301 ft | 242 kts | 154° |
| 2026-05-07 18:35 | -33.79179 | 151.35892 | 6077 ft | 240 kts | 154° |
| 2026-05-07 18:36 | -33.80574 | 151.36979 | 5862 ft | 238 kts | 154° |
| 2026-05-07 18:36 | -33.81971 | 151.38028 | 5640 ft | 236 kts | 155° |
| 2026-05-07 18:36 | -33.83366 | 151.39063 | 5424 ft | 235 kts | 154° |
| 2026-05-07 18:36 | -33.84775 | 151.40053 | 5213 ft | 233 kts | 159° |
| 2026-05-07 18:37 | -33.86251 | 151.40802 | 5004 ft | 229 kts | 163° |
| 2026-05-07 18:37 | -33.87734 | 151.41475 | 4799 ft | 227 kts | 165° |
| 2026-05-07 18:37 | -33.89208 | 151.42140 | 4579 ft | 226 kts | 166° |
| 2026-05-07 18:37 | -33.90694 | 151.42716 | 4355 ft | 223 kts | 171° |
| 2026-05-07 18:38 | -33.92201 | 151.43172 | 4154 ft | 222 kts | 169° |
| 2026-05-07 18:38 | -33.93695 | 151.43649 | 3939 ft | 222 kts | 170° |
| 2026-05-07 18:38 | -33.95194 | 151.44099 | 3713 ft | 225 kts | 172° |
| 2026-05-07 18:38 | -33.96740 | 151.44509 | 3519 ft | 230 kts | 173° |
| 2026-05-07 18:39 | -33.98321 | 151.44856 | 3312 ft | 232 kts | 175° |
| 2026-05-07 18:39 | -33.99906 | 151.45212 | 3114 ft | 231 kts | 174° |
| 2026-05-07 18:39 | -34.01487 | 151.45559 | 2997 ft | 231 kts | 174° |
| 2026-05-07 18:39 | -34.03082 | 151.45889 | 2977 ft | 233 kts | 179° |
| 2026-05-07 18:40 | -34.04586 | 151.45533 | 2862 ft | 216 kts | 216° |
| 2026-05-07 18:40 | -34.05414 | 151.44167 | 2950 ft | 196 kts | 250° |
| 2026-05-07 18:40 | -34.05857 | 151.42691 | 2923 ft | 182 kts | 235° |
| 2026-05-07 18:40 | -34.06611 | 151.41462 | 2926 ft | 184 kts | 232° |
| 2026-05-07 18:41 | -34.07362 | 151.40220 | 3009 ft | 183 kts | 232° |
| 2026-05-07 18:41 | -34.08100 | 151.38987 | 3011 ft | 180 kts | 233° |
| 2026-05-07 18:41 | -34.08833 | 151.37753 | 2963 ft | 182 kts | 233° |
| 2026-05-07 18:41 | -34.09567 | 151.36512 | 2990 ft | 182 kts | 233° |
| 2026-05-07 18:42 | -34.10311 | 151.35252 | 2979 ft | 185 kts | 232° |
| 2026-05-07 18:42 | -34.11086 | 151.34029 | 2990 ft | 183 kts | 222° |
| 2026-05-07 18:42 | -34.12157 | 151.33280 | 2976 ft | 180 kts | 206° |
| 2026-05-07 18:42 | -34.13331 | 151.32678 | 2983 ft | 186 kts | 205° |
| 2026-05-07 18:43 | -34.14540 | 151.32084 | 2999 ft | 187 kts | 205° |
| 2026-05-07 18:43 | -34.15738 | 151.31485 | 2999 ft | 186 kts | 205° |
| 2026-05-07 18:43 | -34.16914 | 151.30876 | 2993 ft | 182 kts | 205° |
| 2026-05-07 18:43 | -34.18046 | 151.30209 | 2941 ft | 180 kts | 219° |
| 2026-05-07 18:44 | -34.18595 | 151.28903 | 2856 ft | 184 kts | 265° |
| 2026-05-07 18:44 | -34.18172 | 151.27402 | 2971 ft | 197 kts | 292° |
| 2026-05-07 18:44 | -34.17680 | 151.25866 | 2995 ft | 195 kts | 277° |
| 2026-05-07 18:44 | -34.17195 | 151.24325 | 2951 ft | 203 kts | 301° |
| 2026-05-07 18:45 | -34.16069 | 151.23254 | 2905 ft | 214 kts | 333° |
| 2026-05-07 18:45 | -34.14611 | 151.22786 | 2995 ft | 220 kts | 343° |
| 2026-05-07 18:45 | -34.13109 | 151.22411 | 3056 ft | 221 kts | 343° |
| 2026-05-07 18:45 | -34.11630 | 151.22034 | 3036 ft | 214 kts | 342° |
| 2026-05-07 18:46 | -34.10179 | 151.21658 | 2822 ft | 213 kts | 341° |
| 2026-05-07 18:46 | -34.08735 | 151.21281 | 2556 ft | 212 kts | 341° |
| 2026-05-07 18:46 | -34.07295 | 151.20903 | 2282 ft | 211 kts | 340° |
| 2026-05-07 18:46 | -34.05884 | 151.20535 | 2007 ft | 203 kts | 339° |
| 2026-05-07 18:47 | -34.04558 | 151.20194 | 1752 ft | 186 kts | 338° |
| 2026-05-07 18:47 | -34.03359 | 151.19883 | 1534 ft | 166 kts | 338° |
| 2026-05-07 18:47 | -34.02282 | 151.19600 | 1356 ft | 155 kts | 338° |
| 2026-05-07 18:47 | -34.01234 | 151.19320 | 1090 ft | 153 kts | 338° |
| 2026-05-07 18:48 | -34.00200 | 151.19048 | 876 ft | 151 kts | 339° |
| 2026-05-07 18:48 | -33.99179 | 151.18779 | 637 ft | 149 kts | 342° |
| 2026-05-07 18:48 | -33.98178 | 151.18522 | 460 ft | 146 kts | 341° |
| 2026-05-07 18:48 | -33.97200 | 151.18265 | 231 ft | 143 kts | 344° |
| 2026-05-07 18:49 | -33.96222 | 151.18016 | 53 ft | 142 kts | 343° |
| 2026-05-07 18:49 | -33.95395 | 151.17754 | 31 ft | 92 kts | 348° |
| 2026-05-07 18:49 | -33.94930 | 151.17665 | 31 ft | 49 kts | 348° |
| 2026-05-07 18:49 | -33.94677 | 151.17602 | 32 ft | 35 kts | 344° |
| 2026-05-07 18:50 | -33.94513 | 151.17526 | 32 ft | 22 kts | 333° |
| 2026-05-07 18:50 | -33.94393 | 151.17429 | 33 ft | 10 kts | 317° |
| 2026-05-07 18:50 | -33.94382 | 151.17416 | 33 ft | 0 kts | 317° |
| 2026-05-07 18:51 | -33.94375 | 151.17409 | 33 ft | 2 kts | 317° |
| 2026-05-07 18:51 | -33.94358 | 151.17389 | 33 ft | 5 kts | 317° |
| 2026-05-07 18:51 | -33.94329 | 151.17357 | 33 ft | 7 kts | 317° |
| 2026-05-07 18:51 | -33.94284 | 151.17315 | 32 ft | 9 kts | 331° |
| 2026-05-07 18:52 | -33.94213 | 151.17287 | 31 ft | 12 kts | 346° |
| 2026-05-07 18:52 | -33.94120 | 151.17262 | 31 ft | 15 kts | 348° |
| 2026-05-07 18:52 | -33.94057 | 151.17246 | 31 ft | 8 kts | 348° |
| 2026-05-07 18:52 | -33.93995 | 151.17225 | 32 ft | 10 kts | 326° |
| 2026-05-07 18:53 | -33.93985 | 151.17145 | 32 ft | 11 kts | 276° |
| 2026-05-07 18:53 | -33.93944 | 151.17102 | 32 ft | 8 kts | 346° |
| 2026-05-07 18:53 | -33.93884 | 151.17086 | 32 ft | 10 kts | 347° |
| 2026-05-07 18:53 | -33.93863 | 151.17080 | 32 ft | 3 kts | 346° |
| 2026-05-07 18:54 | -33.93844 | 151.17068 | 32 ft | 3 kts | 304° |
| 2026-05-07 18:54 | -33.93841 | 151.17037 | 32 ft | 4 kts | 255° |
| 2026-05-07 18:54 | -33.93853 | 151.17001 | 32 ft | 1 kts | 254° |
| 2026-05-07 18:54 | -33.93856 | 151.16986 | 32 ft | 3 kts | 256° |
| 2026-05-07 18:55 | -33.93861 | 151.16963 | 32 ft | 0 kts | 255° |